Time;durP1;ratioP1;P1;durP2;ratioP2;P2;SDS_P1;SDS_P2;PMS_P1;PMS_P2;Temp;Humidity;BMP_temperature;BMP_pressure;BME280_temperature;BME280_humidity;BME280_pressure;Samples;Min_cycle;Max_cycle;Signal;HPM_P1;HPM_P2
2024/01/09 10:47:45;;;;;;;10.97;6.30;;;;;;;13.87;27.82;100362.06;5143125;27;20548;-86
2024/01/09 10:50:33;;;;;;;8.07;6.10;;;;;;;15.46;25.21;100347.84;5092207;28;39267;-86
2024/01/09 10:53:06;;;;;;;8.43;5.93;;;;;;;16.16;24.70;100346.31;5091829;28;40855;-88
2024/01/09 10:55:35;;;;;;;10.13;6.00;;;;;;;17.60;22.81;100354.78;5091871;28;41795;-89
2024/01/09 10:58:20;;;;;;;8.47;6.10;;;;;;;18.36;20.02;100362.06;5091747;28;41296;-86
2024/01/09 11:00:49;;;;;;;8.37;6.03;;;;;;;18.52;20.22;100362.72;5126123;27;39174;-86
2024/01/09 11:03:19;;;;;;;7.80;5.80;;;;;;;19.13;19.79;100327.88;5091597;28;42184;-87
2024/01/09 11:05:48;;;;;;;8.60;5.83;;;;;;;18.53;19.18;100337.59;5091350;28;41976;-87
2024/01/09 11:08:23;;;;;;;7.47;5.57;;;;;;;19.12;19.16;100355.72;5091167;28;41425;-87
2024/01/09 11:10:52;;;;;;;9.93;6.23;;;;;;;18.59;19.05;100363.16;5094878;27;40349;-88
2024/01/09 11:13:23;;;;;;;7.67;5.43;;;;;;;17.57;19.88;100319.31;5111918;27;42703;-88
2024/01/09 11:16:00;;;;;;;8.30;5.40;;;;;;;15.64;20.61;100302.34;5111543;27;42693;-87
2024/01/09 11:18:30;;;;;;;7.23;5.30;;;;;;;13.69;23.25;100286.69;5111484;27;41338;-88
2024/01/09 11:21:02;;;;;;;8.77;5.23;;;;;;;12.31;24.47;100321.00;5111384;27;40493;-88
2024/01/09 11:23:55;;;;;;;7.03;5.37;;;;;;;11.22;24.49;100264.81;5111596;27;40879;-87
2024/01/09 11:26:23;;;;;;;6.60;4.73;;;;;;;12.06;24.50;100283.22;5101030;27;44289;-88
2024/01/09 11:28:51;;;;;;;7.33;5.03;;;;;;;12.78;23.85;100291.28;5111639;27;41252;-87
2024/01/09 11:31:25;;;;;;;8.57;5.23;;;;;;;12.56;22.94;100279.06;5111624;27;39308;-87
2024/01/09 11:34:01;;;;;;;10.87;5.70;;;;;;;12.75;24.37;100265.72;5111060;27;42798;-87
2024/01/09 11:36:30;;;;;;;9.63;5.87;;;;;;;14.02;23.99;100279.56;5094672;27;41998;-88
2024/01/09 11:38:59;;;;;;;7.97;5.80;;;;;;;15.38;22.22;100254.00;5145560;27;41230;-87
2024/01/09 11:41:51;;;;;;;8.23;6.13;;;;;;;15.59;20.18;100299.94;5093997;27;38787;-86
2024/01/09 11:44:28;;;;;;;9.40;5.80;;;;;;;15.05;20.79;100294.25;5107706;27;42056;-86
2024/01/09 11:46:56;;;;;;;8.47;5.50;;;;;;;13.53;21.67;100275.13;5145830;27;41966;-86
2024/01/09 11:49:25;;;;;;;9.03;5.70;;;;;;;11.67;21.86;100273.41;5110714;27;42302;-86
2024/01/09 11:51:55;;;;;;;7.93;5.43;;;;;;;10.68;23.01;100280.28;5110685;27;38821;-88
2024/01/09 11:54:26;;;;;;;10.87;5.23;;;;;;;10.26;23.85;100268.75;5111262;27;41023;-86
2024/01/09 11:57:10;;;;;;;10.00;5.27;;;;;;;11.26;23.62;100218.66;5109360;27;41828;-87
2024/01/09 11:59:37;;;;;;;7.70;4.87;;;;;;;13.36;22.67;100257.34;5097206;28;41206;-87
2024/01/09 12:04:45;;;;;;;8.43;5.03;;;;;;;14.33;20.43;100272.56;5111533;27;43185;-87
2024/01/09 12:07:15;;;;;;;9.07;5.30;;;;;;;14.09;21.75;100252.59;5080471;28;42178;-86
2024/01/09 12:09:47;;;;;;;8.07;5.53;;;;;;;14.35;20.28;100238.66;5113758;28;41325;-87
2024/01/09 12:12:37;;;;;;;8.40;4.97;;;;;;;14.31;20.62;100247.81;5113992;28;39897;-88
2024/01/09 12:15:05;;;;;;;6.80;5.27;;;;;;;13.99;20.59;100262.88;5079926;28;42589;-87
2024/01/09 12:17:34;;;;;;;7.80;5.17;;;;;;;13.94;20.38;100273.78;5080109;28;43030;-89
2024/01/09 12:20:18;;;;;;;6.40;4.73;;;;;;;13.89;21.29;100229.69;5131273;27;43126;-87
2024/01/09 12:22:50;;;;;;;7.43;4.80;;;;;;;14.03;21.34;100254.66;5080029;28;38827;-88
2024/01/09 12:25:18;;;;;;;9.07;5.70;;;;;;;13.93;21.19;100258.75;5092698;28;41030;-87
2024/01/09 12:27:46;;;;;;;11.03;5.43;;;;;;;15.43;20.88;100251.94;5096996;28;43845;-89
2024/01/09 12:30:14;;;;;;;7.13;5.13;;;;;;;17.55;18.63;100273.91;5096925;28;43790;-87
2024/01/09 12:32:43;;;;;;;8.47;5.80;;;;;;;19.09;18.38;100237.75;5096653;28;39709;-87
2024/01/09 12:35:13;;;;;;;7.67;5.90;;;;;;;20.41;16.81;100263.19;5130502;27;40656;-87
2024/01/09 12:37:42;;;;;;;7.93;5.77;;;;;;;21.35;16.98;100224.84;5096446;28;41775;-89
2024/01/09 12:40:34;;;;;;;6.83;5.30;;;;;;;22.13;16.41;100242.34;5093620;28;43742;-87
2024/01/09 12:43:09;;;;;;;6.90;5.13;;;;;;;22.43;16.45;100263.91;5096689;28;38869;-88
2024/01/09 12:45:39;;;;;;;8.27;6.40;;;;;;;23.04;15.88;100236.75;5096999;28;41778;-88
2024/01/09 12:48:09;;;;;;;8.30;5.73;;;;;;;23.51;16.10;100223.38;5130624;27;43029;-88
2024/01/09 12:50:37;;;;;;;6.60;5.90;;;;;;;23.84;15.33;100246.38;5096567;28;41376;-88
2024/01/09 12:53:14;;;;;;;6.73;6.10;;;;;;;23.92;14.65;100220.28;5096444;28;39161;-89
2024/01/09 12:55:46;;;;;;;7.77;5.67;;;;;;;23.72;14.70;100236.72;5096500;28;43127;-89
2024/01/09 12:58:13;;;;;;;10.10;6.20;;;;;;;21.84;14.98;100213.38;5130171;27;44454;-88
2024/01/09 13:00:41;;;;;;;10.93;6.83;;;;;;;20.95;15.57;100213.84;5095652;28;43108;-87
2024/01/09 13:03:08;;;;;;;7.97;6.20;;;;;;;20.63;16.49;100234.53;5095968;28;40476;-89
2024/01/09 13:05:37;;;;;;;8.77;6.80;;;;;;;20.03;16.02;100219.63;5096078;28;42349;-89
2024/01/09 13:08:06;;;;;;;7.07;5.73;;;;;;;19.09;16.11;100209.09;5095894;28;42023;-89
2024/01/09 13:10:34;;;;;;;9.63;6.10;;;;;;;18.21;16.93;100199.56;5094959;28;41124;-87
2024/01/09 13:13:01;;;;;;;7.10;5.33;;;;;;;17.88;17.82;100217.13;5096427;28;38937;-88
2024/01/09 13:15:33;;;;;;;6.80;5.37;;;;;;;16.92;18.36;100181.88;5096055;28;42457;-88
2024/01/09 13:18:20;;;;;;;7.83;5.43;;;;;;;15.58;18.37;100190.59;5096013;28;41962;-88
2024/01/09 13:20:49;;;;;;;9.33;5.97;;;;;;;13.96;19.55;100221.31;5096068;28;41299;-88
2024/01/09 13:23:23;;;;;;;8.00;5.30;;;;;;;12.11;20.53;100181.16;5095391;28;39207;-88
2024/01/09 13:25:53;;;;;;;10.10;6.07;;;;;;;11.12;22.24;100196.28;5095727;28;40952;-89
2024/01/09 13:28:25;;;;;;;8.13;6.07;;;;;;;10.14;22.37;100192.41;5093024;28;42982;-89
2024/01/09 13:30:54;;;;;;;10.23;6.47;;;;;;;8.97;23.50;100131.56;5095882;28;41412;-89
2024/01/09 13:33:21;;;;;;;8.20;5.40;;;;;;;8.39;24.50;100181.09;5095260;28;38933;-89
2024/01/09 13:35:50;;;;;;;9.43;5.93;;;;;;;7.63;24.92;100174.66;5095593;28;40632;-88
2024/01/09 13:38:19;;;;;;;9.00;5.70;;;;;;;6.83;26.32;100115.44;5095332;28;43231;-88
2024/01/09 13:40:51;;;;;;;9.23;5.23;;;;;;;6.51;26.61;100128.59;5129998;27;42947;-89
2024/01/09 13:43:19;;;;;;;8.27;5.70;;;;;;;6.21;27.10;100167.03;5095686;28;40267;-88
2024/01/09 13:45:50;;;;;;;9.27;5.40;;;;;;;5.82;27.73;100158.25;5095987;28;40805;-87
2024/01/09 13:48:18;;;;;;;12.37;5.53;;;;;;;5.51;28.41;100147.56;5095278;28;43241;-88
2024/01/09 13:50:46;;;;;;;9.00;5.70;;;;;;;5.25;28.85;100148.97;5095163;28;41395;-88
2024/01/09 13:53:15;;;;;;;7.70;4.93;;;;;;;4.76;29.44;100098.31;5095490;28;40059;-88
2024/01/09 13:55:46;;;;;;;12.03;5.63;;;;;;;4.31;29.34;100090.41;5095573;28;42307;-90
2024/01/09 13:58:14;;;;;;;9.37;5.47;;;;;;;4.43;30.02;100137.41;5095543;28;43669;-88
2024/01/09 14:00:41;;;;;;;12.00;5.60;;;;;;;4.21;30.49;100115.03;5095051;28;42404;-87
2024/01/09 14:03:09;;;;;;;9.57;5.80;;;;;;;3.90;30.83;100106.81;5095322;28;41478;-88
2024/01/09 14:05:39;;;;;;;10.37;5.67;;;;;;;3.76;31.44;100120.13;5129526;27;41470;-87
2024/01/09 14:08:07;;;;;;;10.90;5.53;;;;;;;3.15;31.76;100068.59;5078266;28;44370;-88
2024/01/09 14:10:36;;;;;;;7.27;5.23;;;;;;;3.34;31.66;100124.19;5095526;28;42400;-88
2024/01/09 14:13:05;;;;;;;10.27;6.13;;;;;;;2.89;32.63;100068.06;5095122;28;39046;-88
2024/01/09 14:15:33;;;;;;;11.50;6.37;;;;;;;3.00;33.02;100102.81;5095095;28;42500;-88
2024/01/09 14:18:01;;;;;;;8.33;5.17;;;;;;;2.89;33.05;100102.06;5095197;28;42624;-89
2024/01/09 14:20:29;;;;;;;12.30;6.40;;;;;;;2.75;33.16;100101.38;5094547;28;42126;-86
2024/01/09 14:22:56;;;;;;;10.50;5.53;;;;;;;2.46;33.83;100062.47;5095042;28;42599;-88
2024/01/09 14:25:25;;;;;;;10.20;6.07;;;;;;;2.52;33.87;100089.41;5094733;28;40756;-88
2024/01/09 14:27:53;;;;;;;10.50;5.37;;;;;;;2.27;33.84;100071.34;5094760;28;41965;-87
2024/01/09 14:30:23;;;;;;;8.27;5.33;;;;;;;2.30;33.90;100076.56;5094422;28;44480;-87
2024/01/09 14:32:51;;;;;;;9.37;6.17;;;;;;;2.27;34.60;100087.91;5094881;28;39107;-87
2024/01/09 14:35:19;;;;;;;10.33;5.13;;;;;;;2.18;34.75;100085.38;5094915;28;40716;-88
2024/01/09 14:37:47;;;;;;;10.83;5.90;;;;;;;1.91;35.26;100041.22;5077916;28;42224;-87
2024/01/09 14:40:15;;;;;;;10.67;5.70;;;;;;;1.96;35.03;100071.66;5129212;27;41870;-88
2024/01/09 14:42:42;;;;;;;11.30;5.50;;;;;;;1.47;35.26;100011.13;5094803;28;40322;-88
2024/01/09 14:45:12;;;;;;;10.40;5.80;;;;;;;1.83;35.70;100063.94;5094118;28;43290;-87
2024/01/09 14:47:41;;;;;;;10.50;5.73;;;;;;;1.40;36.01;100018.09;5094489;28;43201;-87
2024/01/09 14:50:09;;;;;;;11.60;6.20;;;;;;;1.51;36.28;100051.94;5094258;28;42124;-87
2024/01/09 14:52:37;;;;;;;9.03;5.83;;;;;;;1.43;36.42;100043.31;5094408;28;40624;-87
2024/01/09 14:55:09;;;;;;;10.73;5.40;;;;;;;1.36;36.74;100046.88;5094414;28;43507;-88
2024/01/09 14:57:36;;;;;;;10.97;5.50;;;;;;;1.41;37.05;100050.28;5094279;28;41851;-87
2024/01/09 15:00:10;;;;;;;9.63;5.57;;;;;;;1.11;36.86;100019.19;5094061;28;42024;-89
2024/01/09 15:02:38;;;;;;;9.93;6.13;;;;;;;1.06;37.01;100032.25;5116592;27;38622;-87
2024/01/09 15:05:10;;;;;;;10.27;6.20;;;;;;;1.08;37.39;100040.94;5135574;27;42049;-87
2024/01/09 15:07:38;;;;;;;11.63;5.70;;;;;;;0.98;38.22;100040.13;5135393;27;42810;-88
2024/01/09 15:12:34;;;;;;;11.30;6.20;;;;;;;0.85;38.62;100038.44;5112780;27;39097;-87
2024/01/09 15:15:01;;;;;;;9.13;5.60;;;;;;;0.81;38.82;100031.50;5114537;27;42192;-88
2024/01/09 15:17:29;;;;;;;12.73;6.00;;;;;;;0.60;39.18;100005.53;5148800;27;41591;-87
2024/01/09 15:19:57;;;;;;;9.73;5.67;;;;;;;0.40;38.88;99987.34;5114537;27;41416;-86
2024/01/09 15:22:26;;;;;;;9.83;5.77;;;;;;;0.54;38.89;100015.94;5114676;27;40212;-88
2024/01/09 15:24:57;;;;;;;11.43;6.73;;;;;;;0.56;39.34;100035.06;5114489;27;43388;-87
2024/01/09 15:27:25;;;;;;;11.00;5.63;;;;;;;0.20;39.20;99979.59;5114065;27;43931;-89
2024/01/09 15:29:54;;;;;;;9.07;5.63;;;;;;;0.45;40.02;100036.84;5114154;27;42248;-88
2024/01/09 15:32:41;;;;;;;11.93;6.00;;;;;;;0.28;39.73;100037.75;5076805;28;39578;-87
2024/01/09 15:35:12;;;;;;;10.97;5.60;;;;;;;-0.03;39.67;99994.41;5097435;28;40812;-87
2024/01/09 15:37:41;;;;;;;11.60;5.80;;;;;;;0.06;40.05;100009.13;5097292;28;42008;-86
2024/01/09 15:40:29;;;;;;;9.70;5.50;;;;;;;-0.03;39.94;100002.22;5097758;28;41450;-86
2024/01/09 15:43:17;;;;;;;10.80;5.67;;;;;;;0.15;40.30;100038.63;5097667;28;40272;-86
2024/01/09 15:45:45;;;;;;;9.27;5.73;;;;;;;-0.02;40.39;100016.97;5096796;28;41281;-87
2024/01/09 15:48:12;;;;;;;12.07;5.40;;;;;;;-0.02;40.75;100020.44;5097158;28;42396;-87
2024/01/09 15:51:00;;;;;;;12.50;6.77;;;;;;;-0.05;40.91;100030.00;5097029;28;42074;-86
